CheckWX is a tool to help pilots better visualize weather data.  It is not intended as a substitute for an official pre-flight weather briefing.

06:09:41 UTC

GCLA METAR
La Palma Airport
Sta Cruz de la Palma, La Palma Island, Spain
Current

40 mins ago

GCLA 230530Z AUTO VRB02KT 9999 OVC037 19/13 Q1014
Observed
Apr-23 @ 05:30 UTC
Wind
  • Variable at 2 KTS
Visibility
10,000+ meters
Flight Rules
VFR
Cloud Levels
  • Overcast at 3,700' AGL
Temperature
19°C / 66°F
Dewpoint
13°C / 55°F
Humidity
68%
Altimeter
29.94" Hg
Pressure
1013.92 hPa
Previous

1 hour ago

GCLA 230500Z AUTO VRB01KT 9999 OVC035 19/13 Q1014
Observed
Apr-23 @ 05:00 UTC
Wind
  • Variable at 1 KTS
Visibility
10,000+ meters
Flight Rules
VFR
Cloud Levels
  • Overcast at 3,500' AGL
Temperature
19°C / 66°F
Dewpoint
13°C / 55°F
Humidity
68%
Altimeter
29.94" Hg
Pressure
1013.92 hPa
Previous

2 hours ago

GCLA 230430Z AUTO VRB01KT 9999 OVC035 19/14 Q1014
Observed
Apr-23 @ 04:30 UTC
Wind
  • Variable at 1 KTS
Visibility
10,000+ meters
Flight Rules
VFR
Cloud Levels
  • Overcast at 3,500' AGL
Temperature
19°C / 66°F
Dewpoint
14°C / 57°F
Humidity
73%
Altimeter
29.94" Hg
Pressure
1013.92 hPa